createdAt,value
2024-02-14T00:00:14.750Z,2.70
2024-02-14T00:02:42.544Z,2.63
2024-02-14T00:05:11.370Z,2.50
2024-02-14T00:07:38.808Z,2.97
2024-02-14T00:10:06.775Z,2.53
2024-02-14T00:12:38.111Z,2.37
2024-02-14T00:15:07.299Z,2.67
2024-02-14T00:17:37.223Z,2.67
2024-02-14T00:20:05.146Z,2.88
2024-02-14T00:22:32.511Z,2.75
2024-02-14T00:24:59.068Z,2.50
2024-02-14T00:27:27.612Z,2.85
2024-02-14T00:29:55.271Z,3.22
2024-02-14T00:32:22.004Z,3.20
2024-02-14T00:34:48.720Z,2.88
2024-02-14T00:37:15.354Z,3.10
2024-02-14T00:39:41.945Z,3.80
2024-02-14T00:42:08.446Z,3.42
2024-02-14T00:44:35.005Z,3.20
2024-02-14T00:47:03.205Z,3.58
2024-02-14T00:49:30.113Z,3.80
2024-02-14T00:51:56.717Z,3.50
2024-02-14T00:54:23.342Z,3.60
2024-02-14T00:56:50.297Z,4.32
2024-02-14T00:59:17.894Z,4.10
2024-02-14T01:01:45.740Z,4.17
2024-02-14T01:04:12.529Z,4.38
2024-02-14T01:06:39.222Z,4.22
2024-02-14T01:09:06.046Z,4.60
2024-02-14T01:11:32.524Z,4.30
2024-02-14T01:13:59.051Z,4.50
2024-02-14T01:16:27.220Z,4.45
2024-02-14T01:18:56.365Z,4.60
2024-02-14T01:21:22.925Z,5.00
2024-02-14T01:23:49.791Z,4.45
2024-02-14T01:26:16.412Z,4.37
2024-02-14T01:28:45.255Z,5.15
2024-02-14T01:31:13.000Z,4.53
2024-02-14T01:33:39.708Z,4.68
2024-02-14T01:36:06.410Z,5.10
2024-02-14T01:38:36.467Z,5.07
2024-02-14T01:41:04.325Z,4.40
2024-02-14T01:43:31.691Z,5.00
2024-02-14T01:46:07.991Z,5.00
2024-02-14T01:48:36.084Z,4.95
2024-02-14T01:51:04.261Z,5.07
2024-02-14T01:53:31.909Z,4.70
2024-02-14T01:56:00.514Z,5.47
2024-02-14T01:58:28.469Z,5.03
2024-02-14T02:00:57.990Z,4.88
2024-02-14T02:03:26.300Z,4.77
2024-02-14T02:05:55.003Z,5.47
2024-02-14T02:08:22.393Z,5.85
2024-02-14T02:10:48.893Z,5.10
2024-02-14T02:13:16.608Z,6.70
2024-02-14T02:15:45.929Z,5.37
2024-02-14T02:18:12.737Z,5.53
2024-02-14T02:20:39.582Z,5.30
2024-02-14T02:23:06.276Z,5.10
2024-02-14T02:25:32.846Z,5.43
2024-02-14T02:27:59.570Z,5.00
2024-02-14T02:30:26.519Z,5.75
2024-02-14T02:32:54.332Z,5.63
2024-02-14T02:35:25.664Z,5.95
2024-02-14T02:37:52.470Z,5.75
2024-02-14T02:40:18.918Z,5.63
2024-02-14T02:42:48.385Z,5.72
2024-02-14T02:45:14.934Z,6.55
2024-02-14T02:47:42.230Z,7.20
2024-02-14T02:50:09.130Z,6.20
2024-02-14T02:52:36.003Z,6.43
2024-02-14T02:55:03.541Z,6.88
2024-02-14T02:57:30.645Z,6.60
2024-02-14T02:59:57.087Z,6.00
2024-02-14T03:02:23.894Z,6.75
2024-02-14T03:04:53.114Z,5.87
2024-02-14T03:07:22.020Z,6.00
2024-02-14T03:09:48.676Z,6.55
2024-02-14T03:12:17.496Z,5.65
2024-02-14T03:14:45.227Z,6.03
2024-02-14T03:17:12.620Z,5.83
2024-02-14T03:19:41.384Z,6.13
2024-02-14T03:22:10.220Z,6.68
2024-02-14T03:24:38.256Z,7.35
2024-02-14T03:27:08.539Z,6.82
2024-02-14T03:29:36.764Z,7.40
2024-02-14T03:32:05.720Z,7.38
2024-02-14T03:34:36.715Z,8.10
2024-02-14T03:37:03.641Z,7.55
2024-02-14T03:39:30.812Z,7.88
2024-02-14T03:41:57.495Z,7.93
2024-02-14T03:44:25.018Z,7.82
2024-02-14T03:46:51.632Z,7.43
2024-02-14T03:49:18.404Z,7.72
2024-02-14T03:51:45.245Z,7.57
2024-02-14T03:54:13.397Z,8.20
2024-02-14T03:56:40.215Z,6.90
2024-02-14T03:59:07.145Z,6.65
2024-02-14T04:01:36.807Z,7.90
2024-02-14T04:04:03.790Z,8.02
2024-02-14T04:06:33.571Z,7.37
2024-02-14T04:09:00.962Z,8.02
2024-02-14T04:11:28.154Z,7.57
2024-02-14T04:13:54.860Z,7.95
2024-02-14T04:16:22.601Z,8.27
2024-02-14T04:18:49.432Z,7.73
2024-02-14T04:21:16.206Z,7.40
2024-02-14T04:23:43.255Z,7.75
2024-02-14T04:26:09.794Z,6.85
2024-02-14T04:28:36.303Z,7.57
2024-02-14T04:31:03.119Z,7.23
2024-02-14T04:33:31.475Z,7.35
2024-02-14T04:35:58.217Z,8.63
2024-02-14T04:38:24.910Z,7.93
2024-02-14T04:40:51.560Z,8.38
2024-02-14T04:43:19.540Z,8.50
2024-02-14T04:45:46.142Z,7.82
2024-02-14T04:48:12.685Z,8.40
2024-02-14T04:50:39.514Z,7.78
2024-02-14T04:53:06.013Z,8.05
2024-02-14T04:55:32.947Z,8.50
2024-02-14T04:58:00.700Z,8.38
2024-02-14T05:00:27.423Z,9.23
2024-02-14T05:02:54.024Z,9.18
2024-02-14T05:05:21.674Z,9.43
2024-02-14T05:07:48.444Z,9.00
2024-02-14T05:10:14.984Z,9.38
2024-02-14T05:12:41.795Z,8.80
2024-02-14T05:15:09.259Z,9.70
2024-02-14T05:17:36.496Z,9.77
2024-02-14T05:20:03.937Z,9.23
2024-02-14T05:22:30.445Z,9.48
2024-02-14T05:24:57.070Z,9.98
2024-02-14T05:27:23.500Z,8.57
2024-02-14T05:29:50.017Z,8.85
2024-02-14T05:32:16.530Z,8.30
2024-02-14T05:34:43.160Z,8.98
2024-02-14T05:37:09.824Z,9.07
2024-02-14T05:39:36.383Z,8.77
2024-02-14T05:42:03.668Z,8.70
2024-02-14T05:44:31.484Z,8.33
2024-02-14T05:46:58.043Z,9.27
2024-02-14T05:49:26.058Z,8.13
2024-02-14T05:51:54.432Z,8.00
2024-02-14T05:54:20.994Z,8.15
2024-02-14T05:56:48.492Z,8.00
2024-02-14T05:59:15.099Z,7.72
2024-02-14T06:01:41.514Z,8.43
2024-02-14T06:04:08.009Z,7.60
2024-02-14T06:06:35.012Z,8.18
2024-02-14T06:09:01.664Z,7.73
2024-02-14T06:11:28.237Z,7.28
2024-02-14T06:13:57.678Z,7.88
2024-02-14T06:16:24.188Z,7.70
2024-02-14T06:18:50.786Z,7.53
2024-02-14T06:21:17.432Z,7.60
2024-02-14T06:23:47.052Z,6.75
2024-02-14T06:26:13.809Z,7.30
2024-02-14T06:28:40.322Z,7.28
2024-02-14T06:31:06.881Z,7.07
2024-02-14T06:33:33.603Z,6.00
2024-02-14T06:36:00.259Z,6.28
2024-02-14T06:38:26.799Z,5.85
2024-02-14T06:40:53.245Z,6.63
2024-02-14T06:43:20.706Z,6.63
2024-02-14T06:45:47.237Z,6.93
2024-02-14T06:48:13.798Z,7.45
2024-02-14T06:50:40.476Z,7.40
2024-02-14T06:53:07.583Z,7.63
2024-02-14T06:55:34.187Z,7.60
2024-02-14T06:58:01.271Z,7.80
2024-02-14T07:00:29.747Z,8.43
2024-02-14T07:02:56.534Z,8.13
2024-02-14T07:05:23.316Z,8.43
2024-02-14T07:07:49.829Z,9.38
2024-02-14T07:10:16.463Z,9.17
2024-02-14T07:12:43.135Z,8.88
2024-02-14T07:15:10.033Z,9.05
2024-02-14T07:17:39.565Z,9.35
2024-02-14T07:20:07.296Z,10.57
2024-02-14T07:22:34.286Z,9.87
2024-02-14T07:25:00.790Z,9.98
2024-02-14T07:27:28.883Z,11.40
2024-02-14T07:29:55.606Z,10.38
2024-02-14T07:32:22.972Z,10.40
2024-02-14T07:34:49.942Z,9.93
2024-02-14T07:37:21.017Z,10.20
2024-02-14T07:39:48.830Z,10.30
2024-02-14T07:42:15.460Z,10.25
2024-02-14T07:44:41.992Z,9.43
2024-02-14T07:47:08.594Z,10.37
2024-02-14T07:49:35.272Z,10.27
2024-02-14T07:52:01.936Z,10.60
2024-02-14T07:54:28.560Z,11.45
2024-02-14T07:56:57.106Z,9.85
2024-02-14T07:59:23.922Z,10.57
2024-02-14T08:01:50.379Z,10.52
2024-02-14T08:04:17.252Z,10.95
2024-02-14T08:06:50.170Z,10.90
2024-02-14T08:09:16.809Z,10.02
2024-02-14T08:11:43.351Z,9.10
2024-02-14T08:14:09.870Z,9.38
2024-02-14T08:16:37.121Z,9.55
2024-02-14T08:19:04.988Z,9.48
2024-02-14T08:21:32.715Z,9.70
2024-02-14T08:24:01.163Z,10.13
2024-02-14T08:26:30.076Z,10.40
2024-02-14T08:28:56.833Z,11.20
2024-02-14T08:31:23.684Z,9.77
2024-02-14T08:33:50.678Z,11.18
2024-02-14T08:36:18.183Z,11.50
2024-02-14T08:38:44.948Z,10.95
2024-02-14T08:41:11.958Z,10.93
2024-02-14T08:43:38.403Z,10.65
2024-02-14T08:46:10.734Z,11.15
2024-02-14T08:48:38.260Z,10.43
2024-02-14T08:51:05.094Z,10.07
2024-02-14T08:53:31.653Z,10.85
2024-02-14T08:55:58.809Z,9.48
2024-02-14T08:58:25.508Z,10.10
2024-02-14T09:01:01.971Z,7.93
2024-02-14T09:03:35.770Z,9.00
2024-02-14T09:06:04.945Z,9.00
2024-02-14T09:08:32.114Z,8.93
2024-02-14T09:11:00.306Z,10.20
2024-02-14T09:13:28.608Z,9.87
2024-02-14T09:15:55.825Z,10.23
2024-02-14T09:18:22.521Z,9.93
2024-02-14T09:20:50.976Z,9.35
2024-02-14T09:23:23.505Z,9.35
2024-02-14T09:25:50.689Z,9.17
2024-02-14T09:28:17.362Z,9.52
2024-02-14T09:30:43.950Z,9.20
2024-02-14T09:33:10.802Z,9.60
2024-02-14T09:35:39.809Z,10.05
2024-02-14T09:38:06.606Z,10.60
2024-02-14T09:40:33.914Z,9.55
2024-02-14T09:43:05.660Z,8.93
2024-02-14T09:45:35.051Z,8.70
2024-02-14T09:48:02.560Z,9.25
2024-02-14T09:50:32.094Z,9.33
2024-02-14T09:52:59.809Z,10.23
2024-02-14T09:55:27.617Z,10.23
2024-02-14T09:57:56.208Z,11.05
2024-02-14T10:00:23.608Z,11.75
2024-02-14T10:02:56.620Z,11.53
2024-02-14T10:05:23.138Z,11.60
2024-02-14T10:07:49.602Z,12.30
2024-02-14T10:10:16.178Z,12.32
2024-02-14T10:12:43.733Z,11.23
2024-02-14T10:15:10.567Z,11.03
2024-02-14T10:17:37.415Z,11.55
2024-02-14T10:20:06.904Z,10.68
2024-02-14T10:22:35.822Z,11.15
2024-02-14T10:25:03.083Z,10.00
2024-02-14T10:27:32.562Z,10.07
2024-02-14T10:29:59.796Z,10.05
2024-02-14T10:32:26.675Z,10.52
2024-02-14T10:34:53.438Z,9.45
2024-02-14T10:37:22.380Z,9.05
2024-02-14T10:39:53.521Z,9.07
2024-02-14T10:42:20.276Z,9.95
2024-02-14T10:44:50.538Z,10.27
2024-02-14T10:47:22.189Z,9.75
2024-02-14T10:49:50.815Z,9.75
2024-02-14T10:52:18.745Z,9.43
2024-02-14T10:54:57.893Z,8.98
2024-02-14T10:57:26.066Z,8.40
2024-02-14T10:59:54.355Z,8.63
2024-02-14T11:02:23.437Z,8.98
2024-02-14T11:04:54.621Z,8.63
2024-02-14T11:07:24.183Z,8.77
2024-02-14T11:10:10.511Z,8.57
2024-02-14T11:12:40.322Z,7.82
2024-02-14T11:15:12.156Z,9.02
2024-02-14T11:17:40.923Z,7.47
2024-02-14T11:20:17.857Z,7.30
2024-02-14T11:22:58.962Z,7.47
2024-02-14T11:25:32.984Z,7.80
2024-02-14T11:28:00.230Z,6.93
2024-02-14T11:30:35.908Z,7.50
2024-02-14T11:33:21.927Z,6.35
2024-02-14T11:35:52.686Z,7.47
2024-02-14T11:38:24.666Z,7.28
2024-02-14T11:40:52.338Z,7.40
2024-02-14T11:43:21.463Z,7.07
2024-02-14T11:45:50.799Z,7.38
2024-02-14T11:48:19.164Z,7.35
2024-02-14T11:50:46.664Z,7.88
2024-02-14T11:53:16.196Z,8.38
2024-02-14T11:55:43.460Z,7.87
2024-02-14T11:58:14.407Z,8.05
2024-02-14T12:00:45.494Z,7.43
2024-02-14T12:03:22.158Z,7.40
2024-02-14T12:05:52.315Z,7.15
2024-02-14T12:08:19.606Z,8.10
2024-02-14T12:10:49.124Z,7.90
2024-02-14T12:13:19.381Z,6.95
2024-02-14T12:15:49.385Z,7.25
2024-02-14T12:18:19.729Z,6.32
2024-02-14T12:20:46.992Z,7.43
2024-02-14T12:23:21.940Z,7.18
2024-02-14T12:25:48.797Z,6.75
2024-02-14T12:28:18.263Z,6.63
2024-02-14T12:30:57.779Z,5.95
2024-02-14T12:33:26.057Z,6.67
2024-02-14T12:35:58.529Z,6.22
2024-02-14T12:38:26.248Z,5.85
2024-02-14T12:40:55.681Z,4.95
2024-02-14T12:43:22.772Z,5.60
2024-02-14T12:45:49.618Z,4.67
2024-02-14T12:48:24.889Z,5.00
2024-02-14T12:50:53.461Z,4.82
2024-02-14T12:53:23.010Z,4.47
2024-02-14T12:55:49.568Z,4.85
2024-02-14T12:58:16.873Z,4.77
2024-02-14T13:00:44.474Z,4.72
2024-02-14T13:05:40.569Z,3.40
2024-02-14T13:08:07.442Z,3.35
2024-02-14T13:10:35.442Z,3.17
2024-02-14T13:13:02.108Z,3.40
2024-02-14T13:15:29.498Z,3.78
2024-02-14T13:17:57.489Z,3.22
2024-02-14T13:20:24.433Z,3.70
2024-02-14T13:22:50.959Z,3.53
2024-02-14T13:25:17.568Z,3.10
2024-02-14T13:27:45.580Z,3.40
2024-02-14T13:30:12.534Z,3.80
2024-02-14T13:32:39.335Z,2.85
2024-02-14T13:35:09.483Z,2.93
2024-02-14T13:37:37.733Z,2.70
2024-02-14T13:40:10.060Z,3.17
2024-02-14T13:42:38.769Z,2.75
2024-02-14T13:45:12.794Z,2.80
2024-02-14T13:47:44.786Z,2.90
2024-02-14T13:50:11.829Z,3.50
2024-02-14T13:52:38.416Z,2.90
2024-02-14T13:55:06.392Z,2.90
2024-02-14T13:57:39.943Z,3.75
2024-02-14T14:00:10.586Z,3.60
2024-02-14T14:02:45.058Z,3.45
2024-02-14T14:05:14.201Z,3.90
2024-02-14T14:07:53.878Z,4.07
2024-02-14T14:10:26.972Z,4.25
2024-02-14T14:12:53.573Z,5.00
2024-02-14T14:15:20.255Z,5.10
2024-02-14T14:17:47.401Z,5.70
2024-02-14T14:20:14.186Z,5.28
2024-02-14T14:22:41.080Z,5.18
2024-02-14T14:25:09.244Z,5.60
2024-02-14T14:27:36.199Z,5.18
2024-02-14T14:30:02.681Z,5.72
2024-02-14T14:32:29.459Z,6.18
2024-02-14T14:34:56.188Z,5.82
2024-02-14T14:37:23.893Z,6.30
2024-02-14T14:39:50.550Z,6.20
2024-02-14T14:42:18.904Z,6.50
2024-02-14T14:44:45.605Z,5.28
2024-02-14T14:47:12.365Z,4.75
2024-02-14T14:49:39.747Z,4.50
2024-02-14T14:52:07.057Z,4.38
2024-02-14T14:54:33.787Z,4.18
2024-02-14T14:57:01.427Z,4.60
2024-02-14T14:59:28.172Z,4.18
2024-02-14T15:01:55.514Z,4.53
2024-02-14T15:04:22.333Z,4.32
2024-02-14T15:06:51.685Z,4.60
2024-02-14T15:09:18.341Z,4.03
2024-02-14T15:11:44.906Z,4.57
2024-02-14T15:14:11.448Z,5.40
2024-02-14T15:16:38.683Z,5.28
2024-02-14T15:19:05.340Z,5.10
2024-02-14T15:21:32.412Z,4.97
2024-02-14T15:23:59.018Z,4.78
2024-02-14T15:26:25.731Z,4.93
2024-02-14T15:29:12.301Z,3.63
2024-02-14T15:31:57.378Z,4.88
2024-02-14T15:34:24.084Z,4.45
2024-02-14T15:36:50.728Z,4.60
2024-02-14T15:39:17.411Z,3.87
2024-02-14T15:41:44.154Z,3.70
2024-02-14T15:44:10.778Z,3.60
2024-02-14T15:46:37.971Z,3.70
2024-02-14T15:49:04.569Z,3.70
2024-02-14T15:51:31.227Z,3.33
2024-02-14T15:53:57.832Z,3.40
2024-02-14T15:56:26.466Z,3.38
2024-02-14T15:58:57.456Z,3.53
2024-02-14T16:01:23.930Z,2.80
2024-02-14T16:03:50.452Z,2.57
2024-02-14T16:06:17.100Z,2.85
2024-02-14T16:08:43.670Z,2.97
2024-02-14T16:11:10.149Z,3.25
2024-02-14T16:13:37.246Z,2.45
2024-02-14T16:16:03.920Z,2.90
2024-02-14T16:18:30.454Z,2.70
2024-02-14T16:20:57.061Z,3.80
2024-02-14T16:23:23.627Z,3.00
2024-02-14T16:25:51.110Z,3.55
2024-02-14T16:28:18.471Z,2.73
2024-02-14T16:30:46.096Z,3.35
2024-02-14T16:33:13.589Z,2.97
2024-02-14T16:35:40.605Z,2.63
2024-02-14T16:38:07.119Z,2.85
2024-02-14T16:40:35.480Z,3.00
2024-02-14T16:43:01.926Z,3.08
2024-02-14T16:45:28.506Z,2.33
2024-02-14T16:47:55.167Z,2.00
2024-02-14T16:50:23.929Z,1.75
2024-02-14T16:52:50.878Z,1.40
2024-02-14T16:55:18.105Z,1.52
2024-02-14T16:57:44.578Z,2.00
2024-02-14T17:00:11.883Z,2.13
2024-02-14T17:02:38.536Z,2.15
2024-02-14T17:05:05.635Z,2.17
2024-02-14T17:07:32.457Z,2.72
2024-02-14T17:10:00.245Z,2.92
2024-02-14T17:12:28.592Z,2.97
2024-02-14T17:14:57.371Z,4.20
2024-02-14T17:17:24.881Z,3.93
2024-02-14T17:19:52.766Z,4.13
2024-02-14T17:22:24.961Z,4.72
2024-02-14T17:24:57.678Z,4.93
2024-02-14T17:27:24.339Z,5.18
2024-02-14T17:29:50.833Z,4.70
2024-02-14T17:32:24.034Z,4.82
2024-02-14T17:34:58.960Z,4.97
2024-02-14T17:37:25.997Z,5.50
2024-02-14T17:39:52.666Z,4.70
2024-02-14T17:42:19.163Z,5.20
2024-02-14T17:44:45.863Z,4.82
2024-02-14T17:47:12.480Z,4.75
2024-02-14T17:49:39.480Z,4.80
2024-02-14T17:52:06.335Z,5.38
2024-02-14T17:54:32.817Z,4.40
2024-02-14T17:56:59.410Z,5.97
2024-02-14T17:59:26.171Z,5.15
2024-02-14T18:01:52.896Z,5.45
2024-02-14T18:04:20.911Z,5.03
2024-02-14T18:06:47.464Z,6.47
2024-02-14T18:09:14.189Z,6.43
2024-02-14T18:11:41.094Z,6.63
2024-02-14T18:14:07.810Z,6.40
2024-02-14T18:16:34.477Z,6.55
2024-02-14T18:19:01.474Z,6.47
2024-02-14T18:21:28.202Z,6.47
2024-02-14T18:23:54.810Z,6.50
2024-02-14T18:26:22.678Z,6.07
2024-02-14T18:28:49.947Z,5.43
2024-02-14T18:31:16.540Z,5.43
2024-02-14T18:33:43.204Z,5.22
2024-02-14T18:36:10.236Z,5.30
2024-02-14T18:38:38.317Z,5.63
2024-02-14T18:41:05.773Z,4.50
2024-02-14T18:43:33.199Z,4.83
2024-02-14T18:45:59.907Z,4.53
2024-02-14T18:48:26.578Z,4.15
2024-02-14T18:50:53.677Z,4.65
2024-02-14T18:53:20.842Z,4.38
2024-02-14T18:55:47.331Z,3.67
2024-02-14T18:58:13.892Z,4.07
2024-02-14T19:00:40.899Z,3.97
2024-02-14T19:03:07.755Z,3.17
2024-02-14T19:05:34.520Z,2.92
2024-02-14T19:08:01.151Z,3.30
2024-02-14T19:10:27.807Z,3.67
2024-02-14T19:12:54.471Z,4.05
2024-02-14T19:15:21.639Z,3.95
2024-02-14T19:17:49.654Z,3.92
2024-02-14T19:20:16.535Z,4.07
2024-02-14T19:22:43.130Z,4.78
2024-02-14T19:25:09.853Z,4.78
2024-02-14T19:27:36.745Z,5.20
2024-02-14T19:30:03.570Z,4.82
2024-02-14T19:32:30.112Z,4.87
2024-02-14T19:34:56.850Z,4.88
2024-02-14T19:37:23.505Z,4.82
2024-02-14T19:39:50.054Z,5.13
2024-02-14T19:42:16.604Z,5.18
2024-02-14T19:44:43.234Z,5.30
2024-02-14T19:47:09.823Z,5.88
2024-02-14T19:49:36.325Z,4.85
2024-02-14T19:52:04.342Z,4.78
2024-02-14T19:54:31.111Z,4.63
2024-02-14T19:56:58.324Z,4.90
2024-02-14T19:59:25.209Z,5.80
2024-02-14T20:01:52.672Z,5.05
2024-02-14T20:04:19.812Z,4.93
2024-02-14T20:06:47.010Z,5.05
2024-02-14T20:09:13.717Z,5.50
2024-02-14T20:11:40.334Z,5.18
2024-02-14T20:14:07.283Z,5.90
2024-02-14T20:16:34.568Z,5.38
2024-02-14T20:19:01.469Z,5.82
2024-02-14T20:21:28.183Z,6.17
2024-02-14T20:23:54.888Z,7.00
2024-02-14T20:26:21.438Z,7.22
2024-02-14T20:28:48.388Z,7.18
2024-02-14T20:31:15.142Z,7.43
2024-02-14T20:33:42.026Z,7.17
2024-02-14T20:36:09.709Z,6.95
2024-02-14T20:38:36.416Z,6.18
2024-02-14T20:41:03.665Z,6.70
2024-02-14T20:43:30.090Z,5.95
2024-02-14T20:45:56.544Z,5.60
2024-02-14T20:48:24.876Z,5.85
2024-02-14T20:50:51.577Z,6.28
2024-02-14T20:53:18.057Z,5.07
2024-02-14T20:55:45.475Z,5.03
2024-02-14T20:58:11.972Z,4.33
2024-02-14T21:00:38.496Z,4.40
2024-02-14T21:03:05.213Z,4.43
2024-02-14T21:05:32.965Z,4.30
2024-02-14T21:07:59.419Z,3.60
2024-02-14T21:10:28.654Z,4.13
2024-02-14T21:12:55.261Z,3.85
2024-02-14T21:15:21.839Z,4.35
2024-02-14T21:17:48.411Z,3.97
2024-02-14T21:20:15.143Z,4.38
2024-02-14T21:22:42.053Z,4.90
2024-02-14T21:25:08.924Z,5.32
2024-02-14T21:27:36.213Z,4.70
2024-02-14T21:30:03.098Z,4.75
2024-02-14T21:32:29.749Z,5.68
2024-02-14T21:34:56.432Z,5.47
2024-02-14T21:37:23.153Z,5.18
2024-02-14T21:39:49.715Z,4.93
2024-02-14T21:42:16.199Z,5.22
2024-02-14T21:44:43.414Z,5.90
2024-02-14T21:47:11.691Z,5.37
2024-02-14T21:49:39.561Z,5.43
2024-02-14T21:52:08.050Z,5.72
2024-02-14T21:54:34.932Z,5.43
2024-02-14T21:57:02.214Z,5.32
2024-02-14T21:59:29.340Z,5.50
2024-02-14T22:01:57.652Z,5.32
2024-02-14T22:04:24.555Z,5.22
2024-02-14T22:06:51.825Z,4.57
2024-02-14T22:09:21.764Z,4.97
2024-02-14T22:11:49.481Z,4.70
2024-02-14T22:14:16.133Z,4.45
2024-02-14T22:16:43.360Z,4.15
2024-02-14T22:19:11.993Z,3.97
2024-02-14T22:21:38.830Z,4.20
2024-02-14T22:24:06.393Z,4.30
2024-02-14T22:26:33.127Z,4.43
2024-02-14T22:28:59.909Z,4.68
2024-02-14T22:31:29.977Z,4.20
2024-02-14T22:33:57.454Z,5.03
2024-02-14T22:36:24.082Z,5.40
2024-02-14T22:38:50.664Z,5.10
2024-02-14T22:41:19.565Z,4.90
2024-02-14T22:43:46.714Z,4.55
2024-02-14T22:46:13.450Z,4.90
2024-02-14T22:48:41.405Z,4.30
2024-02-14T22:51:08.442Z,3.47
2024-02-14T22:53:35.189Z,3.55
2024-02-14T22:56:02.083Z,3.80
2024-02-14T22:58:28.758Z,3.92
2024-02-14T23:00:55.307Z,4.13
2024-02-14T23:03:21.938Z,4.35
2024-02-14T23:05:48.582Z,4.20
2024-02-14T23:08:15.134Z,4.90
2024-02-14T23:10:41.626Z,4.30
2024-02-14T23:13:08.734Z,5.10
2024-02-14T23:15:35.294Z,4.30
2024-02-14T23:18:01.877Z,4.93
2024-02-14T23:20:28.511Z,4.82
2024-02-14T23:22:55.220Z,5.35
2024-02-14T23:25:22.045Z,5.90
2024-02-14T23:27:48.616Z,5.05
2024-02-14T23:30:15.972Z,4.72
2024-02-14T23:32:43.013Z,5.15
2024-02-14T23:35:13.511Z,5.43
2024-02-14T23:37:41.638Z,4.77
2024-02-14T23:40:12.632Z,4.90
2024-02-14T23:42:43.748Z,5.93
2024-02-14T23:45:11.895Z,4.90
2024-02-14T23:47:39.158Z,5.72
2024-02-14T23:50:07.465Z,5.63
2024-02-14T23:52:34.882Z,6.22
2024-02-14T23:55:05.392Z,6.20
2024-02-14T23:57:32.896Z,5.22
2024-02-14T23:59:59.480Z,5.72
